Time;durP1;ratioP1;P1;durP2;ratioP2;P2;SDS_P1;SDS_P2;PMS_P1;PMS_P2;Temp;Humidity;BMP_temperature;BMP_pressure;BME280_temperature;BME280_humidity;BME280_pressure;Samples;Min_cycle;Max_cycle;Signal;HPM_P1;HPM_P2
2023/10/09 00:03:03;;;;;;;3.83;1.83;;;;;;;18.87;45.25;95467.44;5026725;28;20048;-77
2023/10/09 00:08:30;;;;;;;5.18;1.50;;;;;;;18.85;45.24;95458.78;5026542;28;20025;-76
2023/10/09 00:11:13;;;;;;;6.07;1.55;;;;;;;18.86;45.41;95465.13;5024925;28;20026;-76
2023/10/09 00:13:48;;;;;;;7.30;1.95;;;;;;;18.82;45.57;95465.34;5024798;28;20031;-76
2023/10/09 00:16:22;;;;;;;5.07;1.63;;;;;;;18.80;45.29;95457.44;5025505;28;20033;-76
2023/10/09 00:18:48;;;;;;;5.47;1.60;;;;;;;18.80;45.35;95459.44;5025399;28;20029;-77
2023/10/09 00:21:20;;;;;;;3.97;1.60;;;;;;;18.76;45.36;95453.31;5024904;28;20025;-76
2023/10/09 00:23:52;;;;;;;5.47;1.73;;;;;;;18.70;45.18;95455.22;5025407;28;20053;-76
2023/10/09 00:26:17;;;;;;;5.10;1.75;;;;;;;18.64;45.23;95457.09;5025123;28;20120;-76
2023/10/09 00:28:47;;;;;;;5.18;2.00;;;;;;;18.55;45.50;95453.16;5005294;28;20117;-76
2023/10/09 00:31:15;;;;;;;2.58;1.40;;;;;;;18.54;45.69;95451.63;5007320;28;20416;-76
2023/10/09 00:33:42;;;;;;;7.47;1.67;;;;;;;18.53;45.71;95452.09;5008263;28;20052;-76
2023/10/09 00:36:12;;;;;;;7.22;1.35;;;;;;;18.50;45.67;95455.81;5024835;28;20029;-76
2023/10/09 00:38:59;;;;;;;4.53;1.70;;;;;;;18.45;45.78;95462.03;5024177;28;20412;-76
2023/10/09 00:41:24;;;;;;;3.80;1.48;;;;;;;18.38;45.72;95471.53;5023857;28;20033;-76
2023/10/09 00:43:51;;;;;;;7.13;1.40;;;;;;;18.29;46.39;95475.16;5023598;28;20037;-76
2023/10/09 00:48:49;;;;;;;3.45;1.40;;;;;;;18.19;46.28;95462.56;5013620;28;20437;-76
2023/10/09 00:51:18;;;;;;;4.75;1.38;;;;;;;18.14;46.23;95463.19;5025243;28;20699;-76
2023/10/09 00:54:07;;;;;;;5.05;1.52;;;;;;;18.05;45.97;95475.16;5024542;28;20034;-76
2023/10/09 00:56:39;;;;;;;4.13;1.50;;;;;;;17.97;46.17;95471.19;5008736;28;20104;-77
2023/10/09 00:59:20;;;;;;;4.32;1.50;;;;;;;17.92;46.13;95482.19;5014272;28;20452;-76
2023/10/09 01:01:56;;;;;;;4.65;1.45;;;;;;;17.82;45.96;95477.91;5028123;28;20068;-76
2023/10/09 01:04:25;;;;;;;7.03;1.52;;;;;;;17.71;46.28;95481.94;5028283;28;20124;-76
2023/10/09 01:07:08;;;;;;;5.22;1.48;;;;;;;17.64;46.46;95482.28;5027278;28;20147;-76
2023/10/09 01:09:38;;;;;;;6.63;1.70;;;;;;;17.55;46.39;95479.56;5028365;28;20025;-76
2023/10/09 01:12:04;;;;;;;4.13;1.80;;;;;;;17.47;46.27;95479.13;5027801;28;20022;-76
2023/10/09 01:14:36;;;;;;;4.10;1.50;;;;;;;17.45;46.54;95498.28;5008376;28;20107;-76
2023/10/09 01:17:02;;;;;;;2.28;1.30;;;;;;;17.39;46.63;95505.72;5009355;28;20018;-76
2023/10/09 01:19:28;;;;;;;4.90;1.40;;;;;;;17.37;46.41;95515.72;5007653;28;20103;-76
2023/10/09 01:22:16;;;;;;;3.58;1.40;;;;;;;17.32;46.67;95510.81;5009279;28;20485;-76
2023/10/09 01:24:42;;;;;;;1.95;1.13;;;;;;;17.25;46.47;95498.00;5009310;28;20105;-76
2023/10/09 01:27:16;;;;;;;6.32;1.63;;;;;;;17.13;46.90;95488.63;5007674;28;20121;-76
2023/10/09 01:29:43;;;;;;;5.45;1.50;;;;;;;17.10;47.11;95486.03;5009441;28;20052;-76
2023/10/09 01:32:16;;;;;;;3.63;1.50;;;;;;;17.06;47.06;95496.53;5007188;28;20030;-76
2023/10/09 01:34:42;;;;;;;4.40;1.42;;;;;;;16.97;47.15;95508.41;5027126;28;20038;-76
2023/10/09 01:37:17;;;;;;;3.83;1.15;;;;;;;16.95;47.26;95516.44;5010110;28;20044;-76
2023/10/09 01:39:42;;;;;;;3.67;1.23;;;;;;;16.92;47.38;95525.72;5012554;28;20025;-76
2023/10/09 01:42:09;;;;;;;3.78;1.48;;;;;;;16.87;47.01;95527.09;5028134;28;20030;-76
2023/10/09 01:44:35;;;;;;;6.00;1.50;;;;;;;16.77;47.19;95527.56;5010769;28;20497;-76
2023/10/09 01:47:07;;;;;;;2.67;1.40;;;;;;;16.75;47.02;95524.50;5010635;28;20116;-76
2023/10/09 01:49:43;;;;;;;3.08;1.25;;;;;;;16.65;46.93;95532.78;5001174;28;20470;-75
2023/10/09 01:52:09;;;;;;;4.35;1.17;;;;;;;16.60;47.06;95533.38;5030876;28;20025;-76
2023/10/09 01:54:39;;;;;;;3.10;1.20;;;;;;;16.51;47.09;95543.72;5029271;28;20479;-76
2023/10/09 01:57:09;;;;;;;3.13;1.13;;;;;;;16.42;47.22;95541.72;5029830;28;20071;-75
2023/10/09 01:59:38;;;;;;;2.88;1.23;;;;;;;16.41;47.09;95534.63;5030150;28;20056;-75
2023/10/09 02:02:12;;;;;;;2.20;1.02;;;;;;;16.38;47.14;95535.53;5029804;28;20499;-75
2023/10/09 02:04:40;;;;;;;3.85;1.58;;;;;;;16.34;47.20;95540.44;5047830;28;20124;-76
2023/10/09 02:07:08;;;;;;;2.75;1.40;;;;;;;16.27;47.43;95554.63;5028886;28;20582;-76
2023/10/09 02:09:34;;;;;;;3.88;1.20;;;;;;;16.22;47.69;95569.09;5029681;28;20037;-75
2023/10/09 02:12:00;;;;;;;2.35;1.60;;;;;;;16.16;47.63;95569.69;5028383;28;20048;-75
2023/10/09 02:14:27;;;;;;;3.70;1.58;;;;;;;16.18;47.93;95574.81;5029277;28;20142;-75
2023/10/09 02:19:52;;;;;;;3.95;1.35;;;;;;;16.13;47.96;95581.72;5005943;28;20119;-75
2023/10/09 02:22:17;;;;;;;4.28;1.50;;;;;;;16.01;48.10;95582.59;5025118;28;20033;-75
2023/10/09 02:24:57;;;;;;;4.78;1.27;;;;;;;16.02;48.05;95586.91;5008495;28;20617;-76
2023/10/09 02:28:23;;;;;;;3.97;1.20;;;;;;;16.02;48.11;95594.47;5010663;28;20119;-76
2023/10/09 02:30:27;;;;;;;8.23;1.23;;;;;;;15.97;48.09;95581.97;5020730;28;20042;-75
2023/10/09 02:33:06;;;;;;;3.05;1.52;;;;;;;16.03;48.12;95591.22;4977463;28;20057;-75
2023/10/09 02:35:37;;;;;;;1.80;1.02;;;;;;;15.93;48.38;95589.63;4985940;28;20088;-75
2023/10/09 02:38:06;;;;;;;3.03;1.52;;;;;;;15.85;48.63;95588.38;5005366;28;20046;-75
2023/10/09 02:40:40;;;;;;;2.60;1.30;;;;;;;15.65;48.90;95575.69;4989118;28;20029;-74
2023/10/09 02:43:12;;;;;;;3.75;1.85;;;;;;;15.57;49.21;95585.44;4974587;28;20602;-75
2023/10/09 02:45:46;;;;;;;4.32;1.40;;;;;;;15.51;49.42;95578.94;4991304;28;20077;-75
2023/10/09 02:48:13;;;;;;;4.28;1.45;;;;;;;15.43;49.38;95579.69;4970495;28;20057;-75
2023/10/09 02:50:39;;;;;;;5.63;2.53;;;;;;;15.19;49.86;95580.13;4998942;28;20034;-75
2023/10/09 02:53:09;;;;;;;4.63;1.10;;;;;;;15.26;49.80;95596.50;5005431;28;20417;-75
2023/10/09 02:55:38;;;;;;;3.60;1.23;;;;;;;15.11;50.08;95590.72;5011929;28;20515;-75
2023/10/09 02:58:20;;;;;;;4.78;1.48;;;;;;;15.06;50.19;95602.34;5028717;28;20025;-75
2023/10/09 03:00:46;;;;;;;2.72;1.15;;;;;;;15.01;50.10;95602.16;5030936;28;20112;-75
2023/10/09 03:03:13;;;;;;;6.47;1.63;;;;;;;15.15;49.91;95615.50;5046217;28;20029;-75
2023/10/09 03:05:42;;;;;;;5.13;1.15;;;;;;;15.14;49.80;95620.28;5046739;28;20074;-75
2023/10/09 03:08:12;;;;;;;3.78;1.45;;;;;;;15.16;49.92;95619.06;5046224;28;20060;-76
2023/10/09 03:10:38;;;;;;;3.78;1.30;;;;;;;15.14;49.62;95617.50;5027147;28;20379;-75
2023/10/09 03:13:05;;;;;;;3.22;1.40;;;;;;;15.09;49.78;95609.78;5027013;28;20033;-75
2023/10/09 03:15:35;;;;;;;2.85;1.30;;;;;;;15.08;49.70;95605.47;5028589;28;20448;-75
2023/10/09 03:18:02;;;;;;;3.20;1.30;;;;;;;15.06;49.64;95602.34;5009523;28;20025;-76
2023/10/09 03:20:29;;;;;;;3.03;1.00;;;;;;;14.99;49.58;95619.22;5026731;28;20036;-75
2023/10/09 03:22:57;;;;;;;3.85;1.20;;;;;;;14.92;49.82;95630.56;5046256;28;20021;-75
2023/10/09 03:25:25;;;;;;;3.55;1.10;;;;;;;14.90;49.87;95640.50;4996193;28;20048;-75
2023/10/09 03:27:52;;;;;;;1.42;0.93;;;;;;;14.87;49.81;95637.44;5011893;28;20025;-75
2023/10/09 03:30:24;;;;;;;3.25;1.40;;;;;;;14.83;49.75;95639.53;5028711;28;20037;-75
2023/10/09 03:32:51;;;;;;;2.42;1.30;;;;;;;14.67;50.22;95647.22;5045657;28;20093;-77
2023/10/09 03:35:24;;;;;;;3.08;1.10;;;;;;;14.52;50.48;95663.53;5028492;28;20040;-75
2023/10/09 03:37:51;;;;;;;2.60;1.13;;;;;;;14.54;50.38;95655.56;5027855;28;20046;-76
2023/10/09 03:40:17;;;;;;;1.98;1.10;;;;;;;14.49;50.35;95653.34;5028349;28;20120;-75
2023/10/09 03:42:44;;;;;;;3.53;1.23;;;;;;;14.47;50.19;95651.03;5027562;28;20035;-76
2023/10/09 03:45:18;;;;;;;2.67;1.20;;;;;;;14.57;50.10;95649.91;5028021;28;20035;-77
2023/10/09 03:47:44;;;;;;;3.17;1.20;;;;;;;14.60;49.83;95648.25;5028972;28;20040;-75
2023/10/09 03:50:23;;;;;;;2.50;1.23;;;;;;;14.59;49.77;95652.22;5028072;28;20082;-75
2023/10/09 03:52:50;;;;;;;3.13;1.20;;;;;;;14.66;49.44;95653.97;5030315;28;20116;-75
2023/10/09 03:55:15;;;;;;;11.10;1.80;;;;;;;14.60;49.60;95662.06;5045272;28;20033;-77
2023/10/09 03:57:41;;;;;;;2.78;1.25;;;;;;;14.59;49.49;95661.31;5007563;28;20034;-76
2023/10/09 04:00:13;;;;;;;4.35;1.27;;;;;;;14.59;49.45;95675.13;5019015;28;20025;-75
2023/10/09 04:02:39;;;;;;;3.15;1.00;;;;;;;14.50;49.33;95663.97;5045386;28;20066;-76
2023/10/09 04:05:07;;;;;;;3.40;1.10;;;;;;;14.44;49.52;95670.47;5027149;28;20037;-77
2023/10/09 04:07:33;;;;;;;3.47;1.27;;;;;;;14.39;49.69;95673.78;5010128;28;20549;-75
2023/10/09 04:10:26;;;;;;;2.42;1.30;;;;;;;14.31;49.77;95673.25;5028023;28;20039;-75
2023/10/09 04:12:44;;;;;;;3.25;1.30;;;;;;;14.34;49.60;95669.63;5044723;28;20033;-75
2023/10/09 04:15:15;;;;;;;2.03;1.20;;;;;;;14.34;49.30;95661.31;5027537;28;20029;-76
2023/10/09 04:17:42;;;;;;;2.97;1.70;;;;;;;14.32;49.27;95660.97;5027302;28;20075;-76
2023/10/09 04:23:04;;;;;;;2.08;1.10;;;;;;;14.31;48.70;95667.72;5014733;28;20041;-76
2023/10/09 04:25:40;;;;;;;1.60;0.93;;;;;;;14.31;48.40;95667.72;5044853;28;20112;-75
2023/10/09 04:28:24;;;;;;;5.07;1.38;;;;;;;14.28;48.18;95674.16;5025746;28;20029;-74
2023/10/09 04:30:55;;;;;;;;;;;;;;;14.21;48.24;95688.19;5018850;28;20502;-74
2023/10/09 04:39:14;;;;;;;2.33;0.70;;;;;;;13.90;48.39;95676.91;5044087;28;20133;-76
2023/10/09 04:44:24;;;;;;;6.68;2.85;;;;;;;13.81;48.56;95672.78;5044730;28;21415;-74
2023/10/09 04:47:36;;;;;;;5.25;1.20;;;;;;;13.83;48.58;95669.59;5025094;28;20022;-75
2023/10/09 04:53:22;;;;;;;3.05;1.10;;;;;;;13.76;48.39;95684.41;5045449;28;20033;-76
2023/10/09 04:55:17;;;;;;;1.92;0.70;;;;;;;13.82;47.98;95687.41;5015751;28;20661;-74
2023/10/09 05:03:12;;;;;;;;;;;;;;;;;;;;;
2023/10/09 05:08:19;;;;;;;1.83;0.85;;;;;;;13.67;47.43;95698.06;5028857;28;20029;-76
2023/10/09 05:11:34;;;;;;;2.35;0.70;;;;;;;13.63;47.44;95710.44;5011437;28;20412;-74
2023/10/09 05:16:19;;;;;;;2.30;0.98;;;;;;;13.71;47.12;95715.34;5026524;28;20182;-75
2023/10/09 05:18:55;;;;;;;3.83;1.08;;;;;;;13.65;46.98;95711.56;5026889;28;20392;-74
2023/10/09 05:29:34;;;;;;;2.42;1.10;;;;;;;13.78;45.96;95725.41;5027228;28;20287;-75
2023/10/09 05:37:25;;;;;;;2.88;0.82;;;;;;;13.75;45.51;95734.56;5041475;28;20126;-75
2023/10/09 05:47:53;;;;;;;4.22;1.10;;;;;;;13.78;45.28;95755.81;5031047;28;20037;-75
2023/10/09 05:55:48;;;;;;;1.85;1.00;;;;;;;13.79;45.01;95760.88;5045480;28;20021;-74
2023/10/09 06:03:48;;;;;;;4.00;0.90;;;;;;;13.75;44.51;95773.25;5028737;28;20033;-76
2023/10/09 06:06:33;;;;;;;1.25;0.90;;;;;;;13.77;44.71;95784.66;5013479;28;20029;-76
2023/10/09 06:09:34;;;;;;;4.05;0.80;;;;;;;13.79;44.37;95783.00;5046670;28;20341;-76
2023/10/09 06:12:32;;;;;;;2.10;1.00;;;;;;;13.84;44.27;95770.63;5033114;28;20498;-76
2023/10/09 06:17:23;;;;;;;2.38;0.70;;;;;;;13.87;43.25;95791.84;5029274;28;20043;-76
2023/10/09 06:19:48;;;;;;;3.60;1.10;;;;;;;13.92;43.13;95796.84;5044391;28;20469;-76
2023/10/09 06:25:17;;;;;;;2.60;0.90;;;;;;;13.98;43.09;95802.59;4990799;28;20026;-75
2023/10/09 06:32:46;;;;;;;2.90;1.08;;;;;;;14.11;42.32;95803.44;4969105;28;20039;-75
2023/10/09 06:35:30;;;;;;;2.75;1.20;;;;;;;14.09;42.39;95803.09;5003416;28;20131;-74
2023/10/09 06:43:15;;;;;;;2.10;0.80;;;;;;;14.12;40.94;95807.75;4983507;28;20046;-75
2023/10/09 06:45:54;;;;;;;5.82;1.33;;;;;;;14.21;40.93;95809.84;4966614;28;20042;-75
2023/10/09 06:51:07;;;;;;;1.67;0.90;;;;;;;14.36;40.79;95802.69;5004884;28;20108;-76
2023/10/09 07:01:44;;;;;;;5.38;1.48;;;;;;;14.60;39.32;95805.94;5030538;28;20486;-72
2023/10/09 07:04:19;;;;;;;4.18;1.65;;;;;;;14.70;38.90;95791.03;5047064;28;20103;-76
2023/10/09 07:06:48;;;;;;;3.65;1.90;;;;;;;14.76;38.43;95799.53;5030205;28;20029;-76
2023/10/09 07:17:04;;;;;;;4.82;2.00;;;;;;;15.04;38.07;95815.25;5046975;28;20040;-76
2023/10/09 07:22:03;;;;;;;3.92;1.30;;;;;;;15.26;37.11;95817.31;5047163;28;20576;-76
2023/10/09 07:24:43;;;;;;;2.92;1.40;;;;;;;15.31;36.73;95811.19;5012713;28;20028;-77
2023/10/09 07:27:15;;;;;;;2.00;1.35;;;;;;;15.43;36.28;95815.97;5029872;28;20068;-77
2023/10/09 07:29:49;;;;;;;2.50;1.13;;;;;;;15.50;36.40;95804.63;5009223;28;20417;-77
2023/10/09 07:32:27;;;;;;;4.30;1.10;;;;;;;15.64;35.87;95812.47;5020549;28;20486;-77
2023/10/09 07:34:52;;;;;;;3.83;1.30;;;;;;;15.78;35.45;95813.22;5030020;28;20053;-77
2023/10/09 07:37:30;;;;;;;3.30;1.30;;;;;;;15.84;35.05;95820.50;5027564;28;20032;-78
2023/10/09 07:39:59;;;;;;;3.10;1.60;;;;;;;16.01;34.99;95817.53;5028311;28;20029;-76
2023/10/09 07:48:04;;;;;;;3.22;1.55;;;;;;;16.41;34.23;95809.31;4984950;28;20679;-78
2023/10/09 07:50:48;;;;;;;2.88;1.73;;;;;;;16.57;33.66;95803.53;4970158;28;20046;-77
2023/10/09 07:53:25;;;;;;;2.63;1.60;;;;;;;16.72;32.70;95806.56;4975894;28;20050;-79
2023/10/09 07:55:58;;;;;;;4.00;1.88;;;;;;;16.96;31.51;95804.81;4984449;28;20088;-79
2023/10/09 07:58:25;;;;;;;2.38;1.45;;;;;;;17.14;31.14;95801.31;4984289;28;20038;-79
2023/10/09 08:01:07;;;;;;;3.97;1.70;;;;;;;17.31;30.74;95801.81;4967846;28;20092;-77
2023/10/09 08:03:35;;;;;;;5.78;1.60;;;;;;;17.58;30.68;95803.84;4983730;28;20038;-77
2023/10/09 08:06:37;;;;;;;2.05;1.38;;;;;;;17.87;30.84;95809.00;4983726;28;20056;-78
2023/10/09 08:17:05;;;;;;;3.13;1.67;;;;;;;19.41;28.08;95815.84;4984534;28;20057;-78
2023/10/09 08:19:34;;;;;;;2.25;1.40;;;;;;;19.81;27.38;95816.22;4969644;28;20113;-79
2023/10/09 08:24:52;;;;;;;2.88;1.30;;;;;;;20.45;26.32;95817.66;5030657;28;20044;-77
2023/10/09 08:32:43;;;;;;;2.92;1.30;;;;;;;21.34;25.23;95806.44;5029612;28;20102;-78
2023/10/09 08:35:29;;;;;;;4.57;2.03;;;;;;;21.69;25.13;95792.41;5027677;28;20025;-79
2023/10/09 08:38:03;;;;;;;3.10;2.10;;;;;;;22.09;24.68;95788.78;5045350;28;20029;-78
2023/10/09 08:40:39;;;;;;;3.53;1.27;;;;;;;22.53;24.21;95780.06;5026635;28;20021;-78
2023/10/09 08:43:18;;;;;;;2.95;1.30;;;;;;;22.94;22.77;95777.16;5027676;28;20033;-79
2023/10/09 08:45:47;;;;;;;5.60;2.85;;;;;;;23.36;22.54;95775.63;5026882;28;20068;-78
2023/10/09 08:48:16;;;;;;;4.88;1.95;;;;;;;23.77;21.99;95772.53;5046089;28;20160;-78
2023/10/09 08:50:45;;;;;;;3.80;1.92;;;;;;;24.03;21.19;95777.97;5027831;28;20048;-77
2023/10/09 08:53:12;;;;;;;3.55;1.35;;;;;;;24.43;20.74;95776.81;5028042;28;20029;-77
2023/10/09 08:55:39;;;;;;;5.95;1.92;;;;;;;24.99;20.52;95771.19;5027502;28;20033;-78
2023/10/09 08:58:10;;;;;;;4.63;1.63;;;;;;;25.49;19.36;95775.25;5027536;28;20050;-78
2023/10/09 09:00:37;;;;;;;2.13;1.15;;;;;;;26.18;18.52;95772.41;5027502;28;20437;-78
2023/10/09 09:03:03;;;;;;;4.55;1.40;;;;;;;26.93;17.74;95767.28;5027442;28;20206;-78
2023/10/09 09:05:29;;;;;;;3.78;1.38;;;;;;;27.67;16.62;95773.78;5045360;28;20563;-78
2023/10/09 09:07:59;;;;;;;4.35;1.90;;;;;;;28.49;16.14;95763.25;5026596;28;20033;-78
2023/10/09 09:10:46;;;;;;;1.83;1.33;;;;;;;29.38;15.31;95785.75;5009484;28;20045;-78
2023/10/09 09:13:18;;;;;;;2.55;1.65;;;;;;;29.89;14.99;95783.53;5013273;28;20021;-78
2023/10/09 09:15:47;;;;;;;3.83;1.42;;;;;;;30.13;14.59;95777.63;5027828;28;20036;-78
2023/10/09 09:18:17;;;;;;;5.65;1.98;;;;;;;30.56;14.29;95773.56;5011150;28;20037;-78
2023/10/09 09:20:46;;;;;;;2.85;1.60;;;;;;;31.00;13.87;95775.94;5028569;28;20108;-78
2023/10/09 09:23:16;;;;;;;3.63;1.15;;;;;;;31.46;13.53;95769.34;5031751;28;20287;-78
2023/10/09 09:25:45;;;;;;;2.20;1.30;;;;;;;31.92;12.78;95775.34;5049009;28;20537;-77
2023/10/09 09:28:21;;;;;;;4.32;1.60;;;;;;;32.34;12.70;95760.94;5030656;28;20060;-78
2023/10/09 09:30:53;;;;;;;4.47;1.65;;;;;;;32.85;12.15;95768.66;5031866;28;20441;-78
2023/10/09 09:33:43;;;;;;;;;;;;;;;33.24;12.22;95769.50;5031942;28;20130;-78
2023/10/09 09:36:12;;;;;;;2.15;1.10;;;;;;;33.64;11.16;95752.59;5033421;28;20446;-79
2023/10/09 09:39:19;;;;;;;2.45;1.10;;;;;;;33.43;11.89;95758.50;5031226;28;20083;-79
2023/10/09 09:41:29;;;;;;;3.47;1.13;;;;;;;33.71;11.65;95751.03;5030943;28;20037;-78
2023/10/09 09:44:00;;;;;;;7.72;1.27;;;;;;;34.35;11.39;95758.28;5030568;28;20091;-78
2023/10/09 09:46:34;;;;;;;2.53;0.93;;;;;;;34.72;10.49;95758.69;5030486;28;20025;-79
2023/10/09 09:49:01;;;;;;;3.65;1.00;;;;;;;35.25;10.00;95749.78;5031398;28;20021;-79
2023/10/09 09:51:29;;;;;;;2.83;1.08;;;;;;;35.11;10.25;95763.59;5030741;28;20053;-79
2023/10/09 09:53:55;;;;;;;2.65;1.30;;;;;;;35.33;9.79;95749.72;5029972;28;20051;-79
2023/10/09 09:56:24;;;;;;;2.38;0.80;;;;;;;35.43;9.59;95746.94;5048641;28;20403;-79
2023/10/09 09:58:55;;;;;;;3.10;1.27;;;;;;;35.92;9.50;95746.16;5029800;28;20525;-79
2023/10/09 10:01:24;;;;;;;3.73;1.80;;;;;;;36.28;9.30;95736.19;5014714;28;20025;-79
2023/10/09 10:03:57;;;;;;;6.50;3.35;;;;;;;36.57;9.21;95734.28;5030201;28;20029;-79
2023/10/09 10:06:26;;;;;;;;;;;;;;;36.35;9.05;95732.47;5031317;28;20056;-79
2023/10/09 10:08:52;;;;;;;3.35;1.85;;;;;;;36.85;8.42;95727.19;5014214;28;20379;-80
2023/10/09 10:11:46;;;;;;;3.22;1.20;;;;;;;36.89;8.34;95712.47;5047929;28;20044;-80
2023/10/09 10:14:31;;;;;;;3.42;2.00;;;;;;;37.09;8.16;95716.91;5013756;28;20028;-80
2023/10/09 10:17:06;;;;;;;3.85;2.30;;;;;;;37.22;8.05;95707.94;5032259;28;20056;-80
2023/10/09 10:22:50;;;;;;;2.40;1.38;;;;;;;38.53;7.50;95694.72;5048031;28;20527;-81
2023/10/09 10:25:32;;;;;;;4.15;1.80;;;;;;;39.31;7.42;95686.59;5047538;28;20387;-81
2023/10/09 10:28:17;;;;;;;4.15;1.60;;;;;;;39.54;6.88;95674.50;5047865;28;20031;-81
2023/10/09 10:30:46;;;;;;;5.82;2.72;;;;;;;39.01;7.14;95670.84;5029930;28;20060;-80
2023/10/09 10:33:22;;;;;;;7.30;4.60;;;;;;;39.14;7.12;95663.81;5028454;28;20056;-80
2023/10/09 10:35:52;;;;;;;5.45;2.35;;;;;;;39.85;7.20;95654.28;5031250;28;20083;-80
2023/10/09 10:38:32;;;;;;;5.68;3.13;;;;;;;39.89;7.11;95659.56;5030250;28;20033;-81
2023/10/09 10:41:11;;;;;;;5.28;3.60;;;;;;;40.00;7.23;95650.25;5029495;28;20115;-81
2023/10/09 10:46:30;;;;;;;2.35;1.60;;;;;;;40.40;7.04;95634.84;5031706;28;20067;-80
2023/10/09 10:51:39;;;;;;;4.32;3.10;;;;;;;41.49;6.50;95625.00;5031565;28;20438;-81
2023/10/09 10:56:49;;;;;;;6.30;4.13;;;;;;;41.85;6.02;95629.28;5032275;28;20071;-80
2023/10/09 10:59:22;;;;;;;5.03;3.72;;;;;;;41.68;6.57;95624.69;5029066;28;20037;-81
2023/10/09 11:05:14;;;;;;;5.55;1.80;;;;;;;42.77;5.86;95632.31;5047190;28;20036;-81
2023/10/09 11:07:16;;;;;;;1.75;1.00;;;;;;;42.81;5.70;95626.78;5031450;28;20041;-81
2023/10/09 11:15:46;;;;;;;4.43;2.00;;;;;;;42.13;5.71;95599.16;5051059;28;20089;-80
2023/10/09 11:18:35;;;;;;;4.75;2.42;;;;;;;42.16;5.99;95595.00;5040178;28;20192;-81
2023/10/09 11:29:12;;;;;;;3.42;1.92;;;;;;;40.17;6.88;95568.59;5031767;28;20485;-80
2023/10/09 11:31:39;;;;;;;5.45;4.35;;;;;;;38.04;8.04;95572.75;5030289;28;20163;-80
2023/10/09 11:34:28;;;;;;;7.30;4.15;;;;;;;36.73;8.96;95570.84;5046062;28;20423;-80
2023/10/09 11:36:55;;;;;;;4.18;3.03;;;;;;;35.34;9.67;95566.22;5013830;28;20033;-80
2023/10/09 11:39:51;;;;;;;5.00;3.38;;;;;;;34.17;10.22;95559.81;5046609;28;20052;-79
2023/10/09 11:42:37;;;;;;;3.90;2.13;;;;;;;33.25;10.71;95557.38;5029668;28;20530;-79
2023/10/09 11:45:19;;;;;;;4.15;2.60;;;;;;;32.23;11.46;95553.63;5013238;28;20331;-79
2023/10/09 11:47:56;;;;;;;3.50;1.92;;;;;;;31.34;11.59;95538.06;5013581;28;20056;-79
2023/10/09 11:50:42;;;;;;;5.13;1.83;;;;;;;30.40;12.85;95533.66;5012701;28;20348;-79
2023/10/09 11:53:09;;;;;;;2.90;1.95;;;;;;;30.12;13.13;95525.88;5046046;28;20029;-78
2023/10/09 11:55:37;;;;;;;6.38;1.90;;;;;;;29.68;13.52;95522.78;5028026;28;20056;-78
2023/10/09 11:58:04;;;;;;;2.40;1.67;;;;;;;29.20;13.75;95513.53;5028269;28;20041;-77
2023/10/09 12:00:41;;;;;;;3.20;1.85;;;;;;;28.86;13.95;95509.84;5045790;28;20506;-78
2023/10/09 12:03:06;;;;;;;5.03;2.30;;;;;;;28.43;14.33;95497.56;5029748;28;20495;-78
2023/10/09 12:05:33;;;;;;;2.00;1.10;;;;;;;27.90;14.25;95500.25;5028385;28;20021;-79
2023/10/09 12:08:01;;;;;;;3.40;0.98;;;;;;;27.57;14.82;95495.88;5045964;28;20063;-78
2023/10/09 12:10:26;;;;;;;3.72;1.48;;;;;;;27.36;14.84;95492.13;5046083;28;20101;-78
2023/10/09 12:12:53;;;;;;;2.00;1.10;;;;;;;27.08;14.91;95484.78;5045533;28;20033;-78
2023/10/09 12:15:19;;;;;;;3.00;1.58;;;;;;;26.79;15.25;95480.03;5028004;28;20029;-78
2023/10/09 12:17:46;;;;;;;4.93;1.38;;;;;;;26.60;15.50;95480.75;5011364;28;20411;-78
2023/10/09 12:20:21;;;;;;;4.20;1.52;;;;;;;26.33;15.56;95473.34;5028366;28;20100;-78
2023/10/09 12:22:47;;;;;;;3.95;1.50;;;;;;;25.91;16.20;95467.09;5045823;28;20033;-78
2023/10/09 12:25:12;;;;;;;5.15;2.38;;;;;;;25.65;15.89;95468.31;5027424;28;20503;-77
2023/10/09 12:27:38;;;;;;;3.50;1.48;;;;;;;25.46;16.24;95473.06;5028170;28;20025;-77
2023/10/09 12:30:03;;;;;;;2.30;1.30;;;;;;;25.37;16.41;95464.97;5045665;28;20029;-77
2023/10/09 12:32:29;;;;;;;2.25;1.38;;;;;;;25.43;16.54;95465.69;5027595;28;20029;-78
2023/10/09 12:34:56;;;;;;;3.70;1.63;;;;;;;25.51;16.29;95465.88;5027297;28;20049;-77
2023/10/09 12:37:21;;;;;;;2.10;1.30;;;;;;;25.45;16.31;95459.53;5011560;28;20052;-77
2023/10/09 12:39:47;;;;;;;4.20;1.50;;;;;;;25.33;16.49;95444.78;5045889;28;20774;-77
2023/10/09 12:42:13;;;;;;;2.17;1.10;;;;;;;25.13;16.65;95441.09;5045076;28;20071;-78
2023/10/09 12:44:42;;;;;;;3.70;1.50;;;;;;;25.00;16.87;95437.28;5027751;28;20103;-77
2023/10/09 12:47:11;;;;;;;5.55;1.75;;;;;;;24.90;16.77;95440.44;5027766;28;20029;-78
2023/10/09 12:49:39;;;;;;;6.05;2.10;;;;;;;24.88;16.89;95439.41;5011367;28;20112;-77
2023/10/09 12:52:05;;;;;;;3.63;1.20;;;;;;;24.87;16.93;95429.44;5027573;28;20523;-78
2023/10/09 12:54:31;;;;;;;2.83;1.30;;;;;;;24.88;16.63;95433.78;5044787;28;20119;-77
2023/10/09 12:56:57;;;;;;;2.28;1.40;;;;;;;24.71;16.63;95424.69;5031253;28;20063;-78
2023/10/09 12:59:24;;;;;;;3.03;1.42;;;;;;;24.57;17.02;95426.53;5015007;28;20454;-77
2023/10/09 13:01:52;;;;;;;4.03;1.33;;;;;;;24.47;16.55;95420.44;5031344;28;20055;-77
2023/10/09 13:04:21;;;;;;;6.47;2.20;;;;;;;24.36;16.51;95410.00;5031155;28;20017;-78
2023/10/09 13:06:51;;;;;;;3.63;1.50;;;;;;;24.27;16.80;95403.91;5031813;28;20033;-78
2023/10/09 13:09:42;;;;;;;4.32;1.90;;;;;;;24.13;16.46;95410.59;5048527;28;20107;-78
2023/10/09 13:12:07;;;;;;;2.78;1.70;;;;;;;24.00;16.65;95402.72;5034949;28;20050;-79
2023/10/09 13:14:35;;;;;;;9.15;2.40;;;;;;;23.76;16.30;95400.47;5030922;28;20028;-78
2023/10/09 13:17:08;;;;;;;4.13;1.67;;;;;;;23.57;16.14;95398.19;5048703;28;20035;-78
2023/10/09 13:19:33;;;;;;;;;;;;;;;23.49;16.50;95399.97;5049465;28;20021;-78
2023/10/09 13:22:02;;;;;;;3.75;1.48;;;;;;;23.38;16.33;95397.16;5030298;28;19966;-78
2023/10/09 13:24:29;;;;;;;3.90;1.50;;;;;;;23.35;16.60;95391.81;5031509;28;20124;-78
2023/10/09 13:26:58;;;;;;;4.88;1.73;;;;;;;23.24;16.75;95386.97;5048298;28;20453;-77
2023/10/09 13:29:23;;;;;;;4.55;1.73;;;;;;;23.21;17.01;95385.19;5048610;28;20083;-78
2023/10/09 13:31:52;;;;;;;4.05;2.10;;;;;;;23.20;16.85;95384.41;5030815;28;20085;-78
2023/10/09 13:34:17;;;;;;;4.40;2.30;;;;;;;23.14;17.32;95374.47;5027232;28;20661;-78
2023/10/09 13:36:52;;;;;;;7.47;2.30;;;;;;;23.09;17.34;95376.00;5011146;28;20052;-77
2023/10/09 13:39:30;;;;;;;3.25;2.00;;;;;;;23.06;17.41;95371.44;5027509;28;20074;-77
2023/10/09 13:42:04;;;;;;;5.38;1.80;;;;;;;23.04;17.58;95373.97;5027837;28;20589;-78
2023/10/09 13:44:31;;;;;;;10.23;2.28;;;;;;;23.05;17.60;95378.28;5027213;28;20127;-77
2023/10/09 13:47:05;;;;;;;4.65;1.80;;;;;;;23.03;17.71;95373.19;5010950;28;20025;-78
2023/10/09 13:49:31;;;;;;;3.30;1.83;;;;;;;22.88;17.76;95357.88;5011290;28;20079;-78
2023/10/09 13:52:06;;;;;;;5.28;2.00;;;;;;;22.90;18.15;95361.72;5026828;28;20021;-78
2023/10/09 13:56:57;;;;;;;8.45;2.38;;;;;;;22.77;18.41;95345.38;5026924;28;20029;-77
2023/10/09 13:59:25;;;;;;;5.60;1.70;;;;;;;22.77;18.48;95356.59;5010787;28;20053;-78
2023/10/09 14:01:59;;;;;;;4.28;1.60;;;;;;;22.72;18.34;95348.94;5026839;28;20120;-77
2023/10/09 14:04:26;;;;;;;3.45;1.98;;;;;;;22.75;18.18;95347.16;5027318;28;20036;-78
2023/10/09 14:06:59;;;;;;;6.35;2.20;;;;;;;22.78;18.18;95346.91;5026249;28;20108;-78
2023/10/09 14:09:31;;;;;;;6.68;2.03;;;;;;;22.73;18.29;95349.69;5026826;28;20037;-78
2023/10/09 14:12:07;;;;;;;5.18;1.90;;;;;;;22.71;18.41;95347.41;5027030;28;20036;-77
2023/10/09 14:14:46;;;;;;;5.40;2.88;;;;;;;22.66;18.31;95350.97;5026131;28;20029;-77
2023/10/09 14:17:13;;;;;;;4.60;2.15;;;;;;;22.58;18.33;95355.53;5026942;28;20048;-78
2023/10/09 14:19:52;;;;;;;7.72;2.17;;;;;;;22.57;18.62;95351.19;5026662;28;20095;-79
2023/10/09 14:22:19;;;;;;;7.68;2.60;;;;;;;22.56;18.26;95352.47;5026768;28;20029;-78
2023/10/09 14:24:55;;;;;;;4.78;2.15;;;;;;;22.46;18.19;95337.94;5026501;28;20025;-78
2023/10/09 14:27:23;;;;;;;6.18;2.95;;;;;;;22.38;18.82;95336.91;5026245;28;20027;-77
2023/10/09 14:29:49;;;;;;;7.55;2.45;;;;;;;22.32;18.87;95344.53;5027749;28;20028;-78
2023/10/09 14:32:15;;;;;;;6.05;2.45;;;;;;;22.25;18.91;95353.38;5027727;28;20132;-77
2023/10/09 14:34:51;;;;;;;8.20;2.15;;;;;;;22.15;18.67;95346.50;5026036;28;20060;-78